createdAt,value
2022-07-28T00:01:01.163Z,14.13
2022-07-28T00:03:32.831Z,14.13
2022-07-28T00:06:02.463Z,14.13
2022-07-28T00:08:32.723Z,14.14
2022-07-28T00:11:02.761Z,14.12
2022-07-28T00:13:33.061Z,14.12
2022-07-28T00:16:03.018Z,14.11
2022-07-28T00:18:34.610Z,14.11
2022-07-28T00:21:05.171Z,14.11
2022-07-28T00:23:39.134Z,14.08
2022-07-28T00:26:12.251Z,14.07
2022-07-28T00:28:42.183Z,14.07
2022-07-28T00:31:12.648Z,14.08
2022-07-28T00:33:45.105Z,14.06
2022-07-28T00:36:15.461Z,14.08
2022-07-28T00:38:45.985Z,14.09
2022-07-28T00:41:20.850Z,14.06
2022-07-28T00:43:52.781Z,14.05
2022-07-28T00:46:24.890Z,14.01
2022-07-28T00:48:57.241Z,14.03
2022-07-28T00:51:28.832Z,14.01
2022-07-28T00:53:59.243Z,14.04
2022-07-28T00:56:29.873Z,14.04
2022-07-28T00:58:59.783Z,14.01
2022-07-28T01:01:30.191Z,14.04
2022-07-28T01:04:03.903Z,14.04
2022-07-28T01:06:53.871Z,14.01
2022-07-28T01:09:38.876Z,14.05
2022-07-28T01:12:18.041Z,14.06
2022-07-28T01:14:53.080Z,14.04
2022-07-28T01:17:34.291Z,14.01
2022-07-28T01:20:13.377Z,13.99
2022-07-28T01:22:52.882Z,14.00
2022-07-28T01:25:48.178Z,13.99
2022-07-28T01:28:28.443Z,13.98
2022-07-28T01:31:04.382Z,14.00
2022-07-28T01:33:39.914Z,14.03
2022-07-28T01:36:14.475Z,13.98
2022-07-28T01:38:47.853Z,14.01
2022-07-28T01:41:22.943Z,13.99
2022-07-28T01:44:00.744Z,14.00
2022-07-28T01:46:33.357Z,13.98
2022-07-28T01:49:03.907Z,14.05
2022-07-28T01:51:35.831Z,14.07
2022-07-28T01:54:09.572Z,13.98
2022-07-28T01:56:41.520Z,13.99
2022-07-28T01:59:13.682Z,13.99
2022-07-28T02:01:47.789Z,14.04
2022-07-28T02:04:22.841Z,14.06
2022-07-28T02:06:55.501Z,14.04
2022-07-28T02:09:26.323Z,14.03
2022-07-28T02:11:57.714Z,14.02
2022-07-28T02:14:31.535Z,14.04
2022-07-28T02:17:10.501Z,14.00
2022-07-28T02:19:44.052Z,13.99
2022-07-28T02:22:15.274Z,14.03
2022-07-28T02:24:45.993Z,14.06
2022-07-28T02:27:22.885Z,14.03
2022-07-28T02:29:55.191Z,14.01
2022-07-28T02:32:33.891Z,14.06
2022-07-28T02:35:11.181Z,14.02
2022-07-28T02:37:46.831Z,14.01
2022-07-28T02:40:18.812Z,14.04
2022-07-28T02:42:52.507Z,14.07
2022-07-28T02:45:27.463Z,14.07
2022-07-28T02:48:03.559Z,14.08
2022-07-28T02:50:33.945Z,14.01
2022-07-28T02:53:15.790Z,14.03
2022-07-28T02:55:50.382Z,13.99
2022-07-28T02:58:23.101Z,13.96
2022-07-28T03:00:56.832Z,13.93
2022-07-28T03:03:30.651Z,13.89
2022-07-28T03:06:01.034Z,13.89
2022-07-28T03:08:31.121Z,13.93
2022-07-28T03:11:11.775Z,13.92
2022-07-28T03:13:43.130Z,13.97
2022-07-28T03:16:14.422Z,13.97
2022-07-28T03:18:46.073Z,14.04
2022-07-28T03:21:16.350Z,14.07
2022-07-28T03:23:50.212Z,14.13
2022-07-28T03:26:25.363Z,14.14
2022-07-28T03:28:57.073Z,14.13
2022-07-28T03:31:27.535Z,14.16
2022-07-28T03:33:59.502Z,14.14
2022-07-28T03:36:40.193Z,14.15
2022-07-28T03:39:12.601Z,14.16
2022-07-28T03:41:45.486Z,14.21
2022-07-28T03:44:28.012Z,14.23
2022-07-28T03:46:59.442Z,14.26
2022-07-28T03:49:31.243Z,14.31
2022-07-28T03:52:00.802Z,14.42
2022-07-28T03:54:31.111Z,14.43
2022-07-28T03:57:01.532Z,14.59
2022-07-28T03:59:31.684Z,14.60
2022-07-28T04:02:01.944Z,14.68
2022-07-28T04:04:33.529Z,14.78
2022-07-28T04:07:03.893Z,14.80
2022-07-28T04:09:33.963Z,14.83
2022-07-28T04:12:04.073Z,14.88
2022-07-28T04:14:34.302Z,14.86
2022-07-28T04:17:04.388Z,14.90
2022-07-28T04:19:36.134Z,14.83
2022-07-28T04:22:05.773Z,14.82
2022-07-28T04:24:35.947Z,14.82
2022-07-28T04:27:05.962Z,14.84
2022-07-28T04:29:36.144Z,14.83
2022-07-28T04:32:06.942Z,14.88
2022-07-28T04:34:38.471Z,14.93
2022-07-28T04:37:09.671Z,14.84
2022-07-28T04:39:39.672Z,14.85
2022-07-28T04:42:09.991Z,14.90
2022-07-28T04:44:42.692Z,14.96
2022-07-28T04:47:13.533Z,14.97
2022-07-28T04:49:45.421Z,15.00
2022-07-28T04:52:16.121Z,15.04
2022-07-28T04:54:46.243Z,15.07
2022-07-28T04:57:16.603Z,15.04
2022-07-28T04:59:47.053Z,15.05
2022-07-28T05:02:19.062Z,15.05
2022-07-28T05:04:50.656Z,15.05
2022-07-28T05:07:21.353Z,15.05
2022-07-28T05:09:51.431Z,15.14
2022-07-28T05:12:21.384Z,15.14
2022-07-28T05:14:51.812Z,15.12
2022-07-28T05:17:21.913Z,15.16
2022-07-28T05:19:53.895Z,15.26
2022-07-28T05:22:24.315Z,15.24
2022-07-28T05:24:54.552Z,15.23
2022-07-28T05:27:24.583Z,15.28
2022-07-28T05:29:54.871Z,15.35
2022-07-28T05:32:24.828Z,15.44
2022-07-28T05:34:56.432Z,15.54
2022-07-28T05:37:26.872Z,15.55
2022-07-28T05:39:57.894Z,15.58
2022-07-28T05:42:28.903Z,15.69
2022-07-28T05:44:58.952Z,15.75
2022-07-28T05:47:29.212Z,15.80
2022-07-28T05:50:03.682Z,15.74
2022-07-28T05:52:33.951Z,15.79
2022-07-28T05:55:03.943Z,15.84
2022-07-28T05:57:33.895Z,15.91
2022-07-28T06:00:04.528Z,15.96
2022-07-28T06:02:41.627Z,16.04
2022-07-28T06:05:14.093Z,16.03
2022-07-28T06:07:44.483Z,16.02
2022-07-28T06:10:16.971Z,16.06
2022-07-28T06:12:49.130Z,16.13
2022-07-28T06:15:21.084Z,16.22
2022-07-28T06:17:53.481Z,16.17
2022-07-28T06:20:27.991Z,16.29
2022-07-28T06:22:58.693Z,16.33
2022-07-28T06:25:31.602Z,16.46
2022-07-28T06:28:03.794Z,16.51
2022-07-28T06:30:34.472Z,16.53
2022-07-28T06:33:05.892Z,16.52
2022-07-28T06:35:43.130Z,16.53
2022-07-28T06:38:17.943Z,16.55
2022-07-28T06:40:50.273Z,16.77
2022-07-28T06:43:20.372Z,16.82
2022-07-28T06:45:51.603Z,16.78
2022-07-28T06:48:23.629Z,16.89
2022-07-28T06:51:00.895Z,16.83
2022-07-28T06:53:33.475Z,16.81
2022-07-28T06:56:05.184Z,16.76
2022-07-28T06:58:35.705Z,16.65
2022-07-28T07:01:08.119Z,16.86
2022-07-28T07:03:38.531Z,16.87
2022-07-28T07:06:11.375Z,16.88
2022-07-28T07:08:41.742Z,16.82
2022-07-28T07:11:13.565Z,16.78
2022-07-28T07:13:43.991Z,16.68
2022-07-28T07:16:14.291Z,16.76
2022-07-28T07:18:44.721Z,16.95
2022-07-28T07:21:16.452Z,17.02
2022-07-28T07:23:50.424Z,17.20
2022-07-28T07:26:20.489Z,17.36
2022-07-28T07:28:51.020Z,17.61
2022-07-28T07:31:21.069Z,17.84
2022-07-28T07:33:51.434Z,17.94
2022-07-28T07:36:23.422Z,17.93
2022-07-28T07:38:53.692Z,17.92
2022-07-28T07:41:24.409Z,17.81
2022-07-28T07:43:54.955Z,17.88
2022-07-28T07:46:25.000Z,17.74
2022-07-28T07:48:54.945Z,17.76
2022-07-28T07:51:26.753Z,17.79
2022-07-28T07:53:57.702Z,17.79
2022-07-28T07:56:28.032Z,17.78
2022-07-28T07:58:58.984Z,17.92
2022-07-28T08:01:29.385Z,18.08
2022-07-28T08:04:01.209Z,18.11
2022-07-28T08:06:34.852Z,18.68
2022-07-28T08:09:05.984Z,18.58
2022-07-28T08:11:36.341Z,18.59
2022-07-28T08:14:06.252Z,18.65
2022-07-28T08:16:36.358Z,19.36
2022-07-28T08:19:06.872Z,19.82
2022-07-28T08:21:40.294Z,20.12
2022-07-28T08:24:11.258Z,20.15
2022-07-28T08:26:47.785Z,19.78
2022-07-28T08:29:18.055Z,19.35
2022-07-28T08:31:48.193Z,19.32
2022-07-28T08:34:31.029Z,19.58
2022-07-28T08:37:07.053Z,19.63
2022-07-28T08:39:38.341Z,19.63
2022-07-28T08:42:09.052Z,19.88
2022-07-28T08:44:53.331Z,20.17
2022-07-28T08:47:23.973Z,20.14
2022-07-28T08:49:55.933Z,20.28
2022-07-28T08:52:30.451Z,20.44
2022-07-28T08:55:03.880Z,20.46
2022-07-28T08:57:36.892Z,20.35
2022-07-28T09:00:08.540Z,20.54
2022-07-28T09:02:40.144Z,20.34
2022-07-28T09:05:11.732Z,20.17
2022-07-28T09:07:44.751Z,19.93
2022-07-28T09:10:15.152Z,19.61
2022-07-28T09:12:45.211Z,19.58
2022-07-28T09:15:15.709Z,19.85
2022-07-28T09:17:46.987Z,20.06
2022-07-28T09:20:17.971Z,20.04
2022-07-28T09:22:59.936Z,19.77
2022-07-28T09:25:31.051Z,19.55
2022-07-28T09:28:09.552Z,19.49
2022-07-28T09:30:53.706Z,19.42
2022-07-28T09:33:42.725Z,19.79
2022-07-28T09:36:17.581Z,20.39
2022-07-28T09:38:49.914Z,20.48
2022-07-28T09:41:22.193Z,20.34
2022-07-28T09:43:55.884Z,20.05
2022-07-28T09:46:29.843Z,19.75
2022-07-28T09:49:02.603Z,20.07
2022-07-28T09:51:34.561Z,20.64
2022-07-28T09:54:14.790Z,20.17
2022-07-28T09:56:47.060Z,20.13
2022-07-28T09:59:18.415Z,20.82
2022-07-28T10:01:56.482Z,20.71
2022-07-28T10:04:35.512Z,20.41
2022-07-28T10:07:10.169Z,20.41
2022-07-28T10:09:43.355Z,20.46
2022-07-28T10:12:21.484Z,19.99
2022-07-28T10:14:53.365Z,19.99
2022-07-28T10:17:33.643Z,20.08
2022-07-28T10:20:06.808Z,20.20
2022-07-28T10:22:43.318Z,20.32
2022-07-28T10:25:15.572Z,20.36
2022-07-28T10:27:47.510Z,20.42
2022-07-28T10:30:18.089Z,20.15
2022-07-28T10:32:48.672Z,20.32
2022-07-28T10:35:20.891Z,20.42
2022-07-28T10:38:00.675Z,20.26
2022-07-28T10:40:38.923Z,20.12
2022-07-28T10:43:09.312Z,19.95
2022-07-28T10:46:04.555Z,19.89
2022-07-28T10:48:30.933Z,20.01
2022-07-28T10:51:02.491Z,19.91
2022-07-28T10:53:39.873Z,19.98
2022-07-28T10:56:19.738Z,20.06
2022-07-28T10:59:01.409Z,20.31
2022-07-28T11:01:53.956Z,20.41
2022-07-28T11:04:55.741Z,20.02
2022-07-28T11:07:38.690Z,19.89
2022-07-28T11:10:19.505Z,19.88
2022-07-28T11:12:53.034Z,20.06
2022-07-28T11:15:35.581Z,20.08
2022-07-28T11:18:08.861Z,20.31
2022-07-28T11:21:06.124Z,20.26
2022-07-28T11:23:48.785Z,20.21
2022-07-28T11:26:39.245Z,20.10
2022-07-28T11:29:24.164Z,19.96
2022-07-28T11:32:02.068Z,19.98
2022-07-28T11:35:19.691Z,20.19
2022-07-28T11:38:09.544Z,20.22
2022-07-28T11:40:42.032Z,20.00
2022-07-28T11:43:40.447Z,20.55
2022-07-28T11:46:38.483Z,20.58
2022-07-28T11:49:23.864Z,20.44
2022-07-28T11:52:27.950Z,20.54
2022-07-28T11:54:59.553Z,20.23
2022-07-28T11:57:30.460Z,20.24
2022-07-28T12:00:02.912Z,20.39
2022-07-28T12:02:38.109Z,20.42
2022-07-28T12:05:14.550Z,20.50
2022-07-28T12:07:47.833Z,20.52
2022-07-28T12:10:54.411Z,20.46
2022-07-28T12:13:30.183Z,20.86
2022-07-28T12:16:01.240Z,21.02
2022-07-28T12:18:33.304Z,21.14
2022-07-28T12:21:05.474Z,20.93
2022-07-28T12:23:44.331Z,20.80
2022-07-28T12:26:34.488Z,20.81
2022-07-28T12:29:13.823Z,20.83
2022-07-28T12:31:56.621Z,20.57
2022-07-28T12:34:30.114Z,20.55
2022-07-28T12:37:03.394Z,20.62
2022-07-28T12:39:38.829Z,20.78
2022-07-28T12:42:10.811Z,20.89
2022-07-28T12:44:43.364Z,21.10
2022-07-28T12:47:17.990Z,20.91
2022-07-28T12:49:58.547Z,20.70
2022-07-28T12:52:30.153Z,20.83
2022-07-28T12:55:00.411Z,20.85
2022-07-28T12:57:48.925Z,20.87
2022-07-28T13:00:22.245Z,20.80
2022-07-28T13:02:55.953Z,20.64
2022-07-28T13:05:55.821Z,20.72
2022-07-28T13:08:27.278Z,21.00
2022-07-28T13:10:58.806Z,21.82
2022-07-28T13:13:29.538Z,22.13
2022-07-28T13:16:16.788Z,22.63
2022-07-28T13:18:48.660Z,22.11
2022-07-28T13:21:58.595Z,21.83
2022-07-28T13:24:31.320Z,21.19
2022-07-28T13:27:03.209Z,21.07
2022-07-28T13:29:36.655Z,20.88
2022-07-28T13:32:07.676Z,20.49
2022-07-28T13:34:37.730Z,20.51
2022-07-28T13:37:10.339Z,20.41
2022-07-28T13:39:40.428Z,20.50
2022-07-28T13:42:11.201Z,20.46
2022-07-28T13:44:44.528Z,20.89
2022-07-28T13:47:16.666Z,20.76
2022-07-28T13:49:47.789Z,21.29
2022-07-28T13:52:29.376Z,21.49
2022-07-28T13:55:07.329Z,21.48
2022-07-28T13:57:41.183Z,21.29
2022-07-28T14:00:15.876Z,20.85
2022-07-28T14:02:48.979Z,20.86
2022-07-28T14:05:19.292Z,20.86
2022-07-28T14:07:51.131Z,21.42
2022-07-28T14:10:21.393Z,22.04
2022-07-28T14:12:58.273Z,22.03
2022-07-28T14:15:28.466Z,22.54
2022-07-28T14:17:58.664Z,22.27
2022-07-28T14:20:29.223Z,22.46
2022-07-28T14:23:00.897Z,22.15
2022-07-28T14:25:48.301Z,22.22
2022-07-28T14:28:19.137Z,21.74
2022-07-28T14:30:49.343Z,21.43
2022-07-28T14:33:19.684Z,21.38
2022-07-28T14:35:50.004Z,21.24
2022-07-28T14:38:51.638Z,21.40
2022-07-28T14:41:13.271Z,21.44
2022-07-28T14:43:43.469Z,21.27
2022-07-28T14:46:19.190Z,21.34
2022-07-28T14:48:52.952Z,21.37
2022-07-28T14:51:23.090Z,21.31
2022-07-28T14:53:57.290Z,21.58
2022-07-28T14:56:27.436Z,21.65
2022-07-28T14:58:57.765Z,21.70
2022-07-28T15:01:29.448Z,22.07
2022-07-28T15:04:06.922Z,21.57
2022-07-28T15:06:37.141Z,21.55
2022-07-28T15:09:09.720Z,21.01
2022-07-28T15:11:41.471Z,21.30
2022-07-28T15:14:11.868Z,21.63
2022-07-28T15:16:45.624Z,21.84
2022-07-28T15:19:15.550Z,21.85
2022-07-28T15:21:47.901Z,21.85
2022-07-28T15:24:22.623Z,21.93
2022-07-28T15:26:52.801Z,21.92
2022-07-28T15:29:23.881Z,21.91
2022-07-28T15:31:55.897Z,21.65
2022-07-28T15:34:27.031Z,21.95
2022-07-28T15:36:57.220Z,22.08
2022-07-28T15:39:30.944Z,21.81
2022-07-28T15:42:01.891Z,21.60
2022-07-28T15:44:32.250Z,21.25
2022-07-28T15:47:03.784Z,21.08
2022-07-28T15:49:34.249Z,21.29
2022-07-28T15:52:04.672Z,21.53
2022-07-28T15:54:36.572Z,21.39
2022-07-28T15:57:06.711Z,21.21
2022-07-28T15:59:48.597Z,21.22
2022-07-28T16:02:19.537Z,21.57
2022-07-28T16:04:53.985Z,21.56
2022-07-28T16:07:25.123Z,21.41
2022-07-28T16:09:57.574Z,21.03
2022-07-28T16:12:28.310Z,21.36
2022-07-28T16:14:59.080Z,21.44
2022-07-28T16:17:29.493Z,20.98
2022-07-28T16:20:02.332Z,20.52
2022-07-28T16:22:33.251Z,20.49
2022-07-28T16:25:05.643Z,20.20
2022-07-28T16:27:36.013Z,20.04
2022-07-28T16:30:07.014Z,20.06
2022-07-28T16:32:37.101Z,20.17
2022-07-28T16:35:08.950Z,20.35
2022-07-28T16:37:40.503Z,20.28
2022-07-28T16:40:13.563Z,20.42
2022-07-28T16:42:44.341Z,20.39
2022-07-28T16:45:14.558Z,20.35
2022-07-28T16:47:44.591Z,20.36
2022-07-28T16:50:19.491Z,20.09
2022-07-28T16:52:49.921Z,19.62
2022-07-28T16:55:23.750Z,19.47
2022-07-28T16:57:55.321Z,19.36
2022-07-28T17:00:27.200Z,19.30
2022-07-28T17:02:57.411Z,19.26
2022-07-28T17:05:27.991Z,19.36
2022-07-28T17:07:58.670Z,19.32
2022-07-28T17:10:30.573Z,19.05
2022-07-28T17:13:00.560Z,19.17
2022-07-28T17:15:31.536Z,19.03
2022-07-28T17:18:01.752Z,18.85
2022-07-28T17:20:32.672Z,18.89
2022-07-28T17:23:04.302Z,18.93
2022-07-28T17:25:56.568Z,19.02
2022-07-28T17:28:26.711Z,18.80
2022-07-28T17:30:57.174Z,18.72
2022-07-28T17:33:28.280Z,18.76
2022-07-28T17:36:01.910Z,18.81
2022-07-28T17:38:33.491Z,18.90
2022-07-28T17:41:07.943Z,18.91
2022-07-28T17:43:43.591Z,18.86
2022-07-28T17:46:16.075Z,18.77
2022-07-28T17:48:51.693Z,18.64
2022-07-28T17:51:22.236Z,18.59
2022-07-28T17:53:52.930Z,18.50
2022-07-28T17:56:27.390Z,18.51
2022-07-28T17:58:58.961Z,18.37
2022-07-28T18:01:29.475Z,18.35
2022-07-28T18:04:01.049Z,18.22
2022-07-28T18:06:33.781Z,18.15
2022-07-28T18:09:07.182Z,18.19
2022-07-28T18:11:55.774Z,18.17
2022-07-28T18:14:28.253Z,18.08
2022-07-28T18:16:59.750Z,18.00
2022-07-28T18:19:30.530Z,18.08
2022-07-28T18:22:00.888Z,17.90
2022-07-28T18:24:30.898Z,17.88
2022-07-28T18:27:02.731Z,17.89
2022-07-28T18:29:38.296Z,17.75
2022-07-28T18:32:12.431Z,17.74
2022-07-28T18:34:42.672Z,17.70
2022-07-28T18:37:14.320Z,17.64
2022-07-28T18:39:44.754Z,17.64
2022-07-28T18:42:17.456Z,17.60
2022-07-28T18:44:48.803Z,17.51
2022-07-28T18:47:19.596Z,17.41
2022-07-28T18:49:49.911Z,17.38
2022-07-28T18:52:21.190Z,17.36
2022-07-28T18:54:51.571Z,17.33
2022-07-28T18:57:23.112Z,17.32
2022-07-28T18:59:53.603Z,17.26
2022-07-28T19:02:26.461Z,17.18
2022-07-28T19:04:56.931Z,17.12
2022-07-28T19:07:27.352Z,17.01
2022-07-28T19:09:57.381Z,17.00
2022-07-28T19:12:31.607Z,17.01
2022-07-28T19:15:01.853Z,16.96
2022-07-28T19:17:34.182Z,16.95
2022-07-28T19:20:06.589Z,16.92
2022-07-28T19:22:36.940Z,16.87
2022-07-28T19:25:09.111Z,16.83
2022-07-28T19:27:41.235Z,16.78
2022-07-28T19:30:12.232Z,16.79
2022-07-28T19:32:43.095Z,16.75
2022-07-28T19:35:14.023Z,16.70
2022-07-28T19:37:46.723Z,16.70
2022-07-28T19:40:16.905Z,16.60
2022-07-28T19:42:48.907Z,16.57
2022-07-28T19:45:19.579Z,16.57
2022-07-28T19:47:51.914Z,16.54
2022-07-28T19:50:22.876Z,16.51
2022-07-28T19:52:53.652Z,16.43
2022-07-28T19:55:29.277Z,16.39
2022-07-28T19:58:03.718Z,16.28
2022-07-28T20:00:33.975Z,16.17
2022-07-28T20:03:06.566Z,16.05
2022-07-28T20:05:58.431Z,15.91
2022-07-28T20:08:28.873Z,15.66
2022-07-28T20:11:03.081Z,15.51
2022-07-28T20:13:40.160Z,15.34
2022-07-28T20:16:10.962Z,15.20
2022-07-28T20:18:41.560Z,15.06
2022-07-28T20:21:11.851Z,14.99
2022-07-28T20:23:42.773Z,15.00
2022-07-28T20:26:15.299Z,14.83
2022-07-28T20:28:47.348Z,14.78
2022-07-28T20:31:19.246Z,14.68
2022-07-28T20:33:49.703Z,14.51
2022-07-28T20:36:25.102Z,14.41
2022-07-28T20:38:59.804Z,14.21
2022-07-28T20:41:33.074Z,14.21
2022-07-28T20:44:27.714Z,14.19
2022-07-28T20:47:00.812Z,14.19
2022-07-28T20:49:31.549Z,14.09
2022-07-28T20:52:01.803Z,14.06
2022-07-28T20:54:32.670Z,14.04
2022-07-28T20:57:03.802Z,13.97
2022-07-28T20:59:35.528Z,13.88
2022-07-28T21:02:06.505Z,13.89
2022-07-28T21:04:36.781Z,13.86
2022-07-28T21:07:07.070Z,13.83
2022-07-28T21:09:37.798Z,13.76
2022-07-28T21:12:09.392Z,13.55
2022-07-28T21:14:41.291Z,13.51
2022-07-28T21:17:11.505Z,13.53
2022-07-28T21:19:41.952Z,13.51
2022-07-28T21:22:15.999Z,13.55
2022-07-28T21:24:47.671Z,13.57
2022-07-28T21:27:19.651Z,13.53
2022-07-28T21:32:20.599Z,13.51
2022-07-28T21:34:50.949Z,13.46
2022-07-28T21:37:21.002Z,13.42
2022-07-28T21:39:51.221Z,13.41
2022-07-28T21:42:21.520Z,13.36
2022-07-28T21:44:53.092Z,13.31
2022-07-28T21:47:23.400Z,13.23
2022-07-28T21:49:53.921Z,13.19
2022-07-28T21:52:26.620Z,13.15
2022-07-28T21:54:56.712Z,13.16
2022-07-28T21:57:26.953Z,13.15
2022-07-28T21:59:58.930Z,13.15
2022-07-28T22:02:29.361Z,13.08
2022-07-28T22:04:59.389Z,13.08
2022-07-28T22:07:29.618Z,13.07
2022-07-28T22:09:59.897Z,13.08
2022-07-28T22:12:29.862Z,12.97
2022-07-28T22:15:01.595Z,12.93
2022-07-28T22:17:31.230Z,12.93
2022-07-28T22:20:01.921Z,12.99
2022-07-28T22:22:31.862Z,12.96
2022-07-28T22:25:02.201Z,12.89
2022-07-28T22:27:32.441Z,12.79
2022-07-28T22:30:04.711Z,12.76
2022-07-28T22:32:35.035Z,12.77
2022-07-28T22:35:05.231Z,12.84
2022-07-28T22:37:35.462Z,12.81
2022-07-28T22:40:06.912Z,12.78
2022-07-28T22:42:36.934Z,12.74
2022-07-28T22:45:09.982Z,12.58
2022-07-28T22:47:40.162Z,12.55
2022-07-28T22:50:12.071Z,12.59
2022-07-28T22:52:42.091Z,12.52
2022-07-28T22:55:12.888Z,12.43
2022-07-28T22:57:47.271Z,12.32
2022-07-28T23:00:20.713Z,12.25
2022-07-28T23:02:50.762Z,12.21
2022-07-28T23:05:21.322Z,12.21
2022-07-28T23:07:57.116Z,12.15
2022-07-28T23:10:28.161Z,12.12
2022-07-28T23:12:58.763Z,12.10
2022-07-28T23:15:41.214Z,12.09
2022-07-28T23:18:12.132Z,12.07
2022-07-28T23:20:43.554Z,12.03
2022-07-28T23:23:15.142Z,12.05
2022-07-28T23:25:46.032Z,12.07
2022-07-28T23:28:16.191Z,12.01
2022-07-28T23:30:48.512Z,11.98
2022-07-28T23:33:56.569Z,12.01
2022-07-28T23:36:16.255Z,11.96
2022-07-28T23:38:58.002Z,11.88
2022-07-28T23:41:28.705Z,11.77
2022-07-28T23:43:59.192Z,11.69
2022-07-28T23:46:31.078Z,11.65
2022-07-28T23:49:01.221Z,11.66
2022-07-28T23:51:46.512Z,11.68
2022-07-28T23:54:17.986Z,11.77
2022-07-28T23:56:51.854Z,11.81
2022-07-28T23:59:22.883Z,11.76
